Saint George Island, Florida
Current Conditions -  °F | °C
As of 5:53 PM on Tuesday 27 Jan 2015 (Local Time) from KAAF Reporting Station
Clear Clear  
Wind Chill: 17°   Ceiling: Unl
Heat Index: 17°   Visibility: 10mi
Dew Point:   Wind: 10mph
Humidity: 48%   Direction: 290°WNW
Pressure: 29.99"   Gusts: NA
Location:  29.8852°N, 84.8748°W
Report Text: KAAF 272253Z AUTO 29009KT 10SM CLR 17/06 A2999 RMK AO2 SLP155 T01720061 TSNO
Loading
Personal Weather Stations






























Interactive Weather Map New forecast layout! Learn more

10-Day Weather Forecast

Advertisements
Track Severe Weather on mobile